Time;durP1;ratioP1;P1;durP2;ratioP2;P2;SDS_P1;SDS_P2;PMS_P1;PMS_P2;Temp;Humidity;BMP_temperature;BMP_pressure;BME280_temperature;BME280_humidity;BME280_pressure;Samples;Min_cycle;Max_cycle;Signal;HPM_P1;HPM_P2
2022/03/11 00:01:23;;;;;;;17.80;12.67;;;7.10;51.20;;;;;;4961133;29;20449;-82
2022/03/11 00:03:51;;;;;;;11.60;9.90;;;7.10;51.60;;;;;;4959082;28;20548;-83
2022/03/11 00:06:18;;;;;;;15.13;10.70;;;6.90;51.80;;;;;;4954790;23;20501;-87
2022/03/11 00:08:44;;;;;;;14.20;10.60;;;6.90;52.30;;;;;;4939980;29;20464;-89
2022/03/11 00:11:11;;;;;;;14.70;11.27;;;7.00;52.60;;;;;;4944969;29;20959;-89
2022/03/11 00:13:38;;;;;;;11.50;10.30;;;6.90;52.80;;;;;;4948646;29;20448;-89
2022/03/11 00:16:05;;;;;;;13.40;10.97;;;7.00;52.90;;;;;;4950535;29;20472;-88
2022/03/11 00:18:32;;;;;;;17.67;10.80;;;6.90;53.20;;;;;;4940751;29;20450;-87
2022/03/11 00:21:00;;;;;;;13.93;11.43;;;6.80;53.60;;;;;;4938293;29;20458;-87
2022/03/11 00:23:26;;;;;;;14.87;11.27;;;6.80;53.80;;;;;;4938084;29;20521;-87
2022/03/11 00:25:53;;;;;;;14.53;11.60;;;6.80;53.90;;;;;;4940120;29;20470;-89
2022/03/11 00:28:20;;;;;;;12.17;10.87;;;6.80;54.20;;;;;;4950537;29;20485;-89
2022/03/11 00:30:47;;;;;;;14.83;12.00;;;6.80;54.30;;;;;;4938966;29;20453;-87
2022/03/11 00:33:13;;;;;;;16.30;13.70;;;6.80;54.30;;;;;;4937587;29;20449;-87
2022/03/11 00:35:40;;;;;;;16.67;12.67;;;6.70;54.50;;;;;;4937358;29;20481;-88
2022/03/11 00:38:08;;;;;;;14.73;13.00;;;6.70;54.80;;;;;;4935579;29;20447;-87
2022/03/11 00:40:35;;;;;;;16.50;14.20;;;6.60;55.30;;;;;;4938735;29;20450;-87
2022/03/11 00:43:02;;;;;;;13.47;12.07;;;6.60;55.70;;;;;;4951943;29;20869;-87
2022/03/11 00:45:29;;;;;;;17.20;13.73;;;6.50;55.80;;;;;;4937615;29;20472;-88
2022/03/11 00:47:55;;;;;;;16.10;14.27;;;6.50;56.00;;;;;;4948353;29;20442;-87
2022/03/11 00:50:23;;;;;;;26.43;13.77;;;6.50;56.10;;;;;;4950270;29;20441;-88
2022/03/11 00:52:49;;;;;;;15.43;12.70;;;6.50;56.20;;;;;;4943340;29;20453;-88
2022/03/11 00:55:18;;;;;;;15.80;13.70;;;6.50;56.30;;;;;;4947850;28;20988;-88
2022/03/11 00:57:45;;;;;;;15.60;13.80;;;6.50;56.40;;;;;;4936683;29;20468;-88
2022/03/11 01:00:13;;;;;;;23.13;14.23;;;6.50;56.70;;;;;;4936676;29;20833;-88
2022/03/11 01:02:40;;;;;;;17.67;14.20;;;6.40;56.70;;;;;;4936618;29;20461;-87
2022/03/11 01:05:08;;;;;;;17.33;14.20;;;6.40;57.10;;;;;;4936768;29;20496;-88
2022/03/11 01:07:36;;;;;;;17.00;14.60;;;6.30;57.30;;;;;;4936613;29;20452;-87
2022/03/11 01:10:03;;;;;;;14.43;12.90;;;6.20;57.40;;;;;;4936460;29;20453;-87
2022/03/11 01:12:32;;;;;;;19.43;15.03;;;6.30;57.60;;;;;;4935967;29;20944;-87
2022/03/11 01:14:58;;;;;;;17.83;14.60;;;6.30;57.80;;;;;;4938671;29;20499;-88
2022/03/11 01:17:25;;;;;;;16.33;14.27;;;6.20;57.60;;;;;;4952179;29;20459;-87
2022/03/11 01:19:52;;;;;;;19.73;16.10;;;6.10;57.80;;;;;;4939720;29;20456;-89
2022/03/11 01:22:18;;;;;;;19.13;14.13;;;6.00;58.00;;;;;;4939130;29;20449;-86
2022/03/11 01:24:45;;;;;;;18.77;14.90;;;6.00;58.20;;;;;;4937094;29;20493;-87
2022/03/11 01:27:12;;;;;;;18.13;15.03;;;6.00;58.30;;;;;;4936382;29;20465;-88
2022/03/11 01:29:40;;;;;;;19.37;17.00;;;6.00;58.50;;;;;;4936216;29;20461;-87
2022/03/11 01:32:07;;;;;;;19.63;15.00;;;6.00;58.50;;;;;;4935873;29;20450;-86
2022/03/11 01:34:34;;;;;;;22.60;16.93;;;6.00;58.30;;;;;;4935466;29;20481;-87
2022/03/11 01:37:01;;;;;;;19.80;15.17;;;6.00;58.40;;;;;;4936558;29;20449;-88
2022/03/11 01:39:27;;;;;;;19.30;15.50;;;5.90;58.40;;;;;;4947995;29;20447;-88
2022/03/11 01:41:54;;;;;;;21.10;16.20;;;5.90;58.60;;;;;;4948050;29;20499;-87
2022/03/11 01:44:22;;;;;;;20.90;16.07;;;5.80;58.80;;;;;;4936112;29;20867;-88
2022/03/11 01:46:50;;;;;;;18.70;15.43;;;5.80;58.90;;;;;;4945708;29;20460;-88
2022/03/11 01:49:16;;;;;;;19.17;14.90;;;5.80;59.00;;;;;;4938069;29;20457;-88
2022/03/11 01:51:44;;;;;;;21.40;17.00;;;5.70;59.00;;;;;;4935758;29;20656;-87
2022/03/11 01:54:12;;;;;;;19.67;15.27;;;5.70;58.90;;;;;;4935920;29;20456;-88
2022/03/11 01:56:40;;;;;;;21.63;15.97;;;5.70;59.00;;;;;;4936134;29;20444;-87
2022/03/11 01:59:08;;;;;;;18.30;14.60;;;5.70;59.00;;;;;;4936515;29;20476;-87
2022/03/11 02:01:35;;;;;;;22.00;17.53;;;5.60;59.50;;;;;;4936291;29;20451;-87
2022/03/11 02:04:14;;;;;;;17.10;15.30;;;5.60;59.50;;;;;;4936745;29;20491;-87
2022/03/11 02:06:41;;;;;;;17.40;14.97;;;5.60;59.50;;;;;;4944847;29;20455;-87
2022/03/11 02:09:07;;;;;;;19.93;15.30;;;5.60;59.60;;;;;;4960742;28;20444;-87
2022/03/11 02:11:36;;;;;;;18.37;16.43;;;5.60;59.50;;;;;;4960656;28;20434;-88
2022/03/11 02:14:04;;;;;;;21.87;16.07;;;5.50;59.60;;;;;;4960341;28;20451;-88
2022/03/11 02:16:33;;;;;;;21.73;16.97;;;5.40;60.00;;;;;;4959935;28;20462;-88
2022/03/11 02:19:01;;;;;;;24.80;17.43;;;5.30;60.50;;;;;;4943207;29;20439;-87
2022/03/11 02:21:29;;;;;;;23.83;18.10;;;5.30;60.90;;;;;;4955583;28;20437;-88
2022/03/11 02:23:59;;;;;;;19.67;16.17;;;5.30;60.60;;;;;;4959952;28;20565;-88
2022/03/11 02:26:27;;;;;;;21.30;17.20;;;5.30;60.70;;;;;;4959623;28;20446;-88
2022/03/11 02:28:56;;;;;;;22.10;17.40;;;5.30;61.10;;;;;;4950787;28;20457;-88
2022/03/11 02:31:25;;;;;;;23.90;19.33;;;5.20;61.00;;;;;;4947371;29;20417;-88
2022/03/11 02:33:52;;;;;;;20.50;17.53;;;5.10;61.60;;;;;;4952695;29;20446;-87
2022/03/11 02:36:19;;;;;;;22.50;16.97;;;5.10;62.20;;;;;;4945634;29;20456;-87
2022/03/11 02:38:46;;;;;;;20.57;17.07;;;5.10;62.40;;;;;;4961992;28;20478;-88
2022/03/11 02:41:14;;;;;;;20.93;16.80;;;5.00;62.50;;;;;;4958573;28;20456;-87
2022/03/11 02:43:42;;;;;;;19.57;17.43;;;5.00;62.70;;;;;;4941445;29;20489;-88
2022/03/11 02:46:08;;;;;;;26.67;18.83;;;5.00;62.90;;;;;;4942432;29;20523;-87
2022/03/11 02:48:35;;;;;;;25.17;18.73;;;4.90;63.00;;;;;;4941923;29;20455;-88
2022/03/11 02:51:02;;;;;;;23.03;17.83;;;5.00;63.00;;;;;;4940539;29;20450;-88
2022/03/11 02:53:29;;;;;;;24.17;18.33;;;5.00;62.90;;;;;;4940176;29;20954;-88
2022/03/11 02:55:57;;;;;;;21.90;17.63;;;5.00;63.20;;;;;;4939881;29;20475;-88
2022/03/11 02:58:25;;;;;;;26.80;19.00;;;4.90;63.60;;;;;;4939532;29;20658;-88
2022/03/11 03:00:52;;;;;;;24.23;18.83;;;4.90;63.70;;;;;;4939426;29;20454;-88
2022/03/11 03:03:19;;;;;;;22.70;18.83;;;4.80;63.90;;;;;;4938837;29;20457;-88
2022/03/11 03:05:45;;;;;;;22.57;18.43;;;4.70;64.20;;;;;;4938479;29;20491;-88
2022/03/11 03:08:12;;;;;;;20.50;16.97;;;4.70;64.40;;;;;;4938198;29;20963;-88
2022/03/11 03:10:39;;;;;;;22.87;18.50;;;4.70;64.70;;;;;;4938485;29;20466;-88
2022/03/11 03:13:05;;;;;;;23.77;18.83;;;4.60;64.80;;;;;;4938657;29;20449;-87
2022/03/11 03:15:34;;;;;;;23.70;18.90;;;4.50;65.00;;;;;;4950608;28;20480;-88
2022/03/11 03:18:00;;;;;;;21.43;18.30;;;4.60;65.30;;;;;;4938328;29;20470;-87
2022/03/11 03:20:27;;;;;;;20.90;17.40;;;4.60;64.80;;;;;;4938294;29;20458;-88
2022/03/11 03:22:54;;;;;;;26.20;19.93;;;4.50;65.00;;;;;;4951295;28;20449;-88
2022/03/11 03:25:21;;;;;;;24.40;19.83;;;4.50;65.00;;;;;;4949043;28;20526;-88
2022/03/11 03:27:47;;;;;;;22.87;18.73;;;4.40;65.50;;;;;;4940041;29;20523;-87
2022/03/11 03:30:14;;;;;;;24.77;19.20;;;4.40;65.80;;;;;;4939114;29;20453;-88
2022/03/11 03:32:42;;;;;;;25.83;20.10;;;4.50;65.20;;;;;;4937661;29;20447;-88
2022/03/11 03:35:10;;;;;;;25.33;17.90;;;4.60;64.70;;;;;;4937961;29;20231;-87
2022/03/11 03:37:36;;;;;;;24.67;19.23;;;4.50;64.40;;;;;;4943427;29;20477;-88
2022/03/11 03:40:04;;;;;;;22.93;18.90;;;4.50;64.60;;;;;;4947813;29;20442;-87
2022/03/11 03:42:31;;;;;;;23.30;18.70;;;4.50;64.40;;;;;;4943996;29;20448;-87
2022/03/11 03:44:57;;;;;;;22.87;18.40;;;4.50;64.30;;;;;;4952642;29;20864;-87
2022/03/11 03:47:24;;;;;;;24.50;18.53;;;4.40;65.20;;;;;;4943648;29;20451;-87
2022/03/11 03:49:52;;;;;;;26.50;17.97;;;4.40;64.50;;;;;;4938239;29;20514;-87
2022/03/11 03:52:19;;;;;;;24.50;18.00;;;4.30;64.60;;;;;;4937710;29;20540;-88
2022/03/11 03:54:46;;;;;;;21.37;17.90;;;4.30;64.90;;;;;;4937552;29;20463;-87
2022/03/11 03:57:12;;;;;;;25.83;20.10;;;4.20;65.30;;;;;;4943583;29;20463;-86
2022/03/11 03:59:40;;;;;;;25.80;19.13;;;4.20;65.60;;;;;;4943167;29;20459;-88
2022/03/11 04:02:06;;;;;;;25.50;19.70;;;4.10;65.70;;;;;;4937366;29;20234;-87
2022/03/11 04:04:33;;;;;;;23.93;19.33;;;4.10;65.70;;;;;;4936815;29;20503;-87
2022/03/11 04:07:01;;;;;;;25.50;18.33;;;4.00;65.90;;;;;;4937545;29;21024;-87
2022/03/11 04:09:28;;;;;;;25.83;20.47;;;4.00;66.20;;;;;;4937497;29;20956;-88
2022/03/11 04:11:54;;;;;;;25.57;18.17;;;3.90;66.50;;;;;;4937446;29;20461;-88
2022/03/11 04:14:21;;;;;;;26.33;18.30;;;3.90;66.50;;;;;;4936858;29;20454;-88
2022/03/11 04:16:48;;;;;;;25.37;20.30;;;3.90;66.70;;;;;;4937391;29;20543;-88
2022/03/11 04:19:15;;;;;;;23.37;19.13;;;3.80;66.70;;;;;;4940292;29;20906;-87
2022/03/11 04:21:42;;;;;;;28.80;20.33;;;3.70;67.00;;;;;;4951764;29;20447;-87
2022/03/11 04:24:13;;;;;;;20.50;16.50;;;3.70;67.20;;;;;;4958502;29;20523;-88
2022/03/11 04:26:41;;;;;;;23.70;19.13;;;3.60;67.10;;;;;;4941927;29;20468;-87
2022/03/11 04:29:08;;;;;;;25.07;19.50;;;3.60;67.10;;;;;;4953267;29;20495;-87
2022/03/11 04:31:34;;;;;;;22.73;18.30;;;3.50;67.20;;;;;;4952051;29;20448;-87
2022/03/11 04:34:02;;;;;;;26.75;18.55;;;3.50;67.30;;;;;;4939646;29;20208;-87
2022/03/11 04:36:29;;;;;;;22.10;16.70;;;3.50;66.90;;;;;;4954091;28;20590;-88
2022/03/11 04:38:56;;;;;;;21.52;18.15;;;3.50;66.80;;;;;;4938035;29;20278;-88
2022/03/11 04:41:24;;;;;;;24.67;18.27;;;3.60;66.80;;;;;;4942156;29;20210;-88
2022/03/11 04:43:51;;;;;;;23.00;17.95;;;3.50;66.70;;;;;;4937010;29;20458;-88
2022/03/11 04:46:17;;;;;;;26.88;18.33;;;3.40;66.60;;;;;;4937222;29;20231;-88
2022/03/11 04:48:47;;;;;;;27.37;19.63;;;3.40;66.80;;;;;;4940295;29;20203;-88
2022/03/11 04:51:14;;;;;;;25.63;18.77;;;3.40;66.80;;;;;;4945854;28;20489;-88
2022/03/11 04:53:41;;;;;;;23.63;18.20;;;3.30;66.60;;;;;;4936782;29;20206;-88
2022/03/11 04:56:07;;;;;;;22.05;17.73;;;3.40;66.00;;;;;;4936572;29;20732;-88
2022/03/11 04:58:35;;;;;;;25.27;19.33;;;3.40;66.00;;;;;;4943845;29;20215;-88
2022/03/11 05:01:02;;;;;;;26.08;18.15;;;3.40;65.80;;;;;;4941885;29;20199;-88
2022/03/11 05:03:29;;;;;;;24.83;18.88;;;3.40;65.60;;;;;;4936460;29;20213;-88
2022/03/11 05:05:55;;;;;;;23.17;16.80;;;3.40;65.60;;;;;;4936310;29;20660;-87
2022/03/11 05:08:23;;;;;;;24.30;19.00;;;3.30;65.70;;;;;;4940711;29;20626;-88
2022/03/11 05:10:50;;;;;;;24.40;18.58;;;3.30;65.70;;;;;;4936485;29;20247;-87
2022/03/11 05:13:16;;;;;;;21.55;17.88;;;3.20;65.70;;;;;;4935546;29;20217;-87
2022/03/11 05:15:44;;;;;;;23.00;18.73;;;3.30;65.70;;;;;;4955243;28;20710;-88
2022/03/11 05:18:12;;;;;;;21.70;16.83;;;3.20;65.30;;;;;;4937417;29;20835;-88
2022/03/11 05:20:39;;;;;;;25.93;16.90;;;3.30;64.20;;;;;;4948597;29;20671;-88
2022/03/11 05:23:05;;;;;;;20.17;16.35;;;3.40;63.70;;;;;;4936113;29;20454;-88
2022/03/11 05:25:32;;;;;;;19.95;15.90;;;3.40;63.30;;;;;;4935827;29;20235;-87
2022/03/11 05:27:59;;;;;;;26.92;16.35;;;3.30;63.10;;;;;;4936119;29;20202;-86
2022/03/11 05:30:26;;;;;;;23.33;15.63;;;3.30;62.90;;;;;;4936459;29;20594;-86
2022/03/11 05:32:54;;;;;;;20.67;15.52;;;3.30;62.40;;;;;;4942689;29;20214;-86
2022/03/11 05:35:20;;;;;;;23.85;16.98;;;3.20;62.50;;;;;;4956714;29;20232;-88
2022/03/11 05:37:47;;;;;;;27.08;16.55;;;3.10;63.40;;;;;;4937436;29;20211;-86
2022/03/11 05:40:14;;;;;;;24.45;15.55;;;3.10;63.80;;;;;;4950282;29;20202;-86
2022/03/11 05:42:41;;;;;;;23.73;17.33;;;3.10;63.50;;;;;;4947158;29;20206;-88
2022/03/11 05:45:09;;;;;;;20.60;15.73;;;3.10;63.50;;;;;;4938259;29;20234;-87
2022/03/11 05:47:36;;;;;;;24.60;16.23;;;3.00;62.80;;;;;;4947040;29;20215;-87
2022/03/11 05:50:05;;;;;;;20.23;14.20;;;3.00;63.30;;;;;;4953709;28;20194;-86
2022/03/11 05:52:32;;;;;;;23.63;16.10;;;3.00;63.60;;;;;;4941763;29;20210;-87
2022/03/11 05:54:58;;;;;;;20.23;15.73;;;3.00;63.70;;;;;;4935916;29;20234;-87
2022/03/11 05:57:25;;;;;;;19.20;14.13;;;3.10;62.70;;;;;;4950051;29;20211;-87
2022/03/11 05:59:52;;;;;;;20.48;14.02;;;3.10;61.40;;;;;;4936984;29;20355;-87
2022/03/11 06:02:18;;;;;;;20.63;15.10;;;3.10;61.30;;;;;;4939987;29;20207;-87
2022/03/11 06:07:14;;;;;;;19.73;14.40;;;3.00;61.60;;;;;;4920206;29;20229;-81
2022/03/11 06:09:42;;;;;;;15.45;12.65;;;2.90;61.70;;;;;;4920013;29;20218;-82
2022/03/11 06:12:10;;;;;;;19.65;14.68;;;3.00;61.50;;;;;;4930733;29;20222;-82
2022/03/11 06:14:37;;;;;;;22.48;14.73;;;2.90;61.30;;;;;;4928407;29;20213;-82
2022/03/11 06:17:04;;;;;;;15.52;13.15;;;2.90;61.30;;;;;;4927239;29;20243;-81
2022/03/11 06:19:30;;;;;;;18.13;13.57;;;2.90;61.00;;;;;;4924656;29;20335;-83
2022/03/11 06:21:59;;;;;;;20.08;14.80;;;3.00;60.80;;;;;;4920225;29;20230;-83
2022/03/11 06:24:27;;;;;;;18.75;13.45;;;3.00;60.80;;;;;;4919850;29;20211;-82
2022/03/11 06:26:54;;;;;;;16.20;12.93;;;2.90;60.30;;;;;;4919088;29;20227;-82
2022/03/11 06:29:20;;;;;;;18.10;12.93;;;3.00;60.60;;;;;;4920819;29;20532;-82
2022/03/11 06:31:47;;;;;;;15.93;12.27;;;3.20;59.20;;;;;;4918161;29;20688;-83
2022/03/11 06:34:14;;;;;;;16.85;13.23;;;3.20;59.40;;;;;;4919418;29;20670;-83
2022/03/11 06:36:41;;;;;;;19.15;12.80;;;3.20;59.20;;;;;;4920339;29;20311;-83
2022/03/11 06:39:08;;;;;;;21.48;14.02;;;3.20;59.20;;;;;;4918989;29;20207;-83
2022/03/11 06:41:36;;;;;;;19.65;12.30;;;3.30;58.80;;;;;;4919519;29;20212;-83
2022/03/11 06:44:03;;;;;;;13.75;10.98;;;3.40;57.70;;;;;;4923275;29;20208;-82
2022/03/11 06:46:30;;;;;;;18.38;12.65;;;3.50;56.70;;;;;;4936965;29;20246;-82
2022/03/11 06:48:57;;;;;;;15.05;12.48;;;3.60;56.20;;;;;;4928615;29;20208;-83
2022/03/11 06:51:23;;;;;;;12.70;9.27;;;3.60;55.50;;;;;;4938489;29;20219;-82
2022/03/11 06:53:50;;;;;;;15.65;10.40;;;3.60;55.50;;;;;;4922895;29;20455;-83
2022/03/11 06:56:17;;;;;;;17.13;10.55;;;3.70;55.20;;;;;;4925206;29;20224;-82
2022/03/11 06:58:45;;;;;;;16.30;9.90;;;3.70;55.00;;;;;;4919516;29;20679;-82
2022/03/11 07:01:14;;;;;;;14.45;10.45;;;3.80;55.20;;;;;;4911715;29;20581;-83
2022/03/11 07:03:40;;;;;;;15.43;10.55;;;3.80;54.10;;;;;;4904112;29;20204;-82
2022/03/11 07:06:07;;;;;;;18.63;10.60;;;3.80;54.70;;;;;;4899220;29;20303;-83
2022/03/11 07:08:34;;;;;;;13.60;10.70;;;3.80;54.50;;;;;;4909929;29;20200;-83
2022/03/11 07:11:00;;;;;;;20.98;9.18;;;3.90;53.70;;;;;;4907298;29;20208;-83
2022/03/11 07:13:27;;;;;;;18.02;11.30;;;4.00;53.10;;;;;;4909989;29;20553;-83
2022/03/11 07:15:57;;;;;;;13.95;10.02;;;3.90;53.00;;;;;;4924622;29;20287;-84
2022/03/11 07:18:23;;;;;;;15.10;9.70;;;4.00;52.60;;;;;;4921147;29;20259;-83
2022/03/11 07:20:50;;;;;;;12.35;10.07;;;4.10;52.40;;;;;;4908113;29;20263;-84
2022/03/11 07:23:17;;;;;;;20.05;9.45;;;4.10;52.40;;;;;;4905521;29;20203;-84
2022/03/11 07:25:44;;;;;;;13.00;9.90;;;4.20;52.40;;;;;;4915677;29;20230;-84
2022/03/11 07:28:11;;;;;;;13.57;9.80;;;4.20;51.80;;;;;;4904468;29;20209;-84
2022/03/11 07:30:38;;;;;;;14.70;9.82;;;4.30;51.80;;;;;;4906186;29;20230;-84
2022/03/11 07:33:09;;;;;;;16.83;9.65;;;4.30;51.40;;;;;;4914104;29;20209;-84
2022/03/11 07:35:36;;;;;;;14.50;8.53;;;4.40;51.40;;;;;;4904141;29;20248;-81
2022/03/11 07:38:03;;;;;;;10.45;7.85;;;4.50;51.30;;;;;;4922107;29;20463;-83
2022/03/11 07:40:30;;;;;;;11.87;8.90;;;4.60;51.30;;;;;;4943400;29;20213;-84
2022/03/11 07:42:56;;;;;;;12.35;8.55;;;4.60;50.70;;;;;;4930502;29;20451;-84
2022/03/11 07:45:23;;;;;;;13.07;9.50;;;4.70;50.80;;;;;;4919208;29;20218;-86
2022/03/11 07:47:50;;;;;;;13.53;8.90;;;4.70;50.40;;;;;;4919518;29;20462;-84
2022/03/11 07:50:18;;;;;;;13.40;8.90;;;4.80;50.40;;;;;;4923716;29;20464;-84
2022/03/11 07:52:45;;;;;;;12.93;9.23;;;4.90;49.80;;;;;;4922265;29;20448;-82
2022/03/11 07:55:12;;;;;;;12.90;8.60;;;5.40;49.70;;;;;;4913786;29;20482;-81
2022/03/11 07:57:40;;;;;;;10.43;8.00;;;5.50;48.90;;;;;;4903002;29;20555;-83
2022/03/11 08:00:09;;;;;;;14.83;9.20;;;5.50;48.70;;;;;;4918327;29;20446;-82
2022/03/11 08:02:36;;;;;;;15.33;10.17;;;5.50;48.70;;;;;;4918011;29;20490;-85
2022/03/11 08:05:03;;;;;;;15.10;8.90;;;5.80;48.80;;;;;;4912231;29;20454;-85
2022/03/11 08:07:34;;;;;;;15.73;9.93;;;6.40;48.30;;;;;;4921393;29;20430;-83
2022/03/11 08:10:00;;;;;;;12.93;9.67;;;7.00;46.90;;;;;;4934295;29;20670;-86
2022/03/11 08:12:27;;;;;;;9.43;8.23;;;7.60;46.00;;;;;;4928746;29;20465;-84
2022/03/11 08:14:54;;;;;;;14.03;11.07;;;7.90;45.00;;;;;;4914668;29;20490;-84
2022/03/11 08:17:23;;;;;;;12.33;10.47;;;7.70;44.10;;;;;;4908289;29;20455;-83
2022/03/11 08:19:49;;;;;;;15.37;10.83;;;7.80;44.30;;;;;;4932680;29;20454;-85
2022/03/11 08:22:16;;;;;;;11.93;10.13;;;8.50;43.90;;;;;;4926672;29;20514;-83
2022/03/11 08:24:44;;;;;;;13.30;10.27;;;9.00;43.40;;;;;;4912732;29;20456;-83
2022/03/11 08:27:11;;;;;;;13.57;9.60;;;9.00;42.80;;;;;;4922359;29;20514;-84
2022/03/11 08:29:38;;;;;;;14.73;9.73;;;9.30;42.20;;;;;;4920146;29;20544;-84
2022/03/11 08:32:06;;;;;;;11.40;10.00;;;9.60;41.60;;;;;;4915707;29;20451;-85
2022/03/11 08:34:32;;;;;;;13.23;9.60;;;10.00;39.80;;;;;;4910350;29;20447;-85
2022/03/11 08:37:00;;;;;;;12.40;9.57;;;10.60;39.30;;;;;;4909059;29;20472;-85
2022/03/11 08:39:26;;;;;;;13.73;10.13;;;10.70;39.00;;;;;;4907980;29;20459;-84
2022/03/11 08:41:54;;;;;;;14.80;10.03;;;11.20;38.40;;;;;;4907483;29;20452;-87
2022/03/11 08:44:22;;;;;;;12.00;10.60;;;11.50;38.00;;;;;;4918850;29;20463;-86
2022/03/11 08:46:49;;;;;;;10.63;9.47;;;12.70;37.20;;;;;;4936648;29;20514;-86
2022/03/11 08:49:16;;;;;;;13.10;10.87;;;13.20;36.10;;;;;;4932077;29;20454;-86
2022/03/11 08:51:43;;;;;;;13.23;11.90;;;13.20;35.10;;;;;;4921104;29;20446;-86
2022/03/11 08:54:10;;;;;;;11.50;10.30;;;13.20;35.10;;;;;;4913211;29;20455;-88
2022/03/11 08:56:40;;;;;;;12.80;11.40;;;13.20;34.90;;;;;;4925448;29;20465;-86
2022/03/11 08:59:12;;;;;;;12.50;11.20;;;13.50;34.80;;;;;;4925641;29;20464;-86
2022/03/11 09:01:38;;;;;;;11.10;10.00;;;13.60;34.00;;;;;;4925944;29;20609;-84
2022/03/11 09:04:43;;;;;;;14.23;12.50;;;13.40;34.40;;;;;;4925162;29;20451;-84
2022/03/11 09:07:10;;;;;;;14.10;12.00;;;13.70;34.60;;;;;;4914360;29;20578;-87
2022/03/11 09:09:38;;;;;;;12.17;10.93;;;13.70;34.10;;;;;;4905515;29;20542;-85
2022/03/11 09:12:05;;;;;;;12.70;10.60;;;14.20;33.30;;;;;;4903966;29;20527;-86
2022/03/11 09:14:33;;;;;;;11.57;10.37;;;14.10;33.20;;;;;;4902392;29;20881;-86
2022/03/11 09:17:03;;;;;;;11.67;10.57;;;14.50;33.20;;;;;;4907969;29;20459;-83
2022/03/11 09:19:30;;;;;;;21.13;11.67;;;14.60;32.80;;;;;;4921014;29;20438;-85
2022/03/11 09:21:57;;;;;;;12.30;11.10;;;15.20;32.90;;;;;;4915561;29;20450;-84
2022/03/11 09:24:24;;;;;;;15.53;11.10;;;15.70;31.60;;;;;;4913869;29;20450;-83
2022/03/11 09:26:52;;;;;;;14.53;12.40;;;15.10;31.60;;;;;;4924082;29;21183;-84
2022/03/11 09:29:18;;;;;;;11.30;10.30;;;15.30;31.50;;;;;;4918251;29;20510;-84
2022/03/11 09:31:46;;;;;;;14.40;12.07;;;16.10;31.90;;;;;;4924504;29;20447;-84
2022/03/11 09:34:13;;;;;;;16.30;12.10;;;16.30;31.80;;;;;;4924443;29;20441;-85
2022/03/11 09:36:40;;;;;;;15.23;11.93;;;17.30;30.80;;;;;;4911314;29;20530;-85
2022/03/11 09:39:06;;;;;;;13.23;11.30;;;18.10;30.00;;;;;;4919295;29;20447;-84
2022/03/11 09:41:33;;;;;;;17.00;12.80;;;19.00;29.30;;;;;;4912236;29;20449;-84
2022/03/11 09:44:02;;;;;;;15.00;12.57;;;20.10;28.60;;;;;;4918340;29;20445;-84
2022/03/11 09:46:30;;;;;;;14.80;12.30;;;20.40;27.80;;;;;;4917118;29;20481;-84
2022/03/11 09:48:58;;;;;;;19.03;13.30;;;20.90;27.50;;;;;;4916503;29;20459;-84
2022/03/11 09:51:26;;;;;;;13.23;11.80;;;21.10;27.00;;;;;;4911860;29;20482;-84
2022/03/11 09:53:53;;;;;;;13.00;11.70;;;20.40;27.30;;;;;;4920579;29;20447;-84
2022/03/11 09:56:21;;;;;;;16.13;12.23;;;20.20;26.80;;;;;;4923611;29;20475;-84
2022/03/11 09:58:48;;;;;;;14.10;12.60;;;20.80;27.00;;;;;;4916597;29;20452;-84
2022/03/11 10:01:14;;;;;;;15.47;13.07;;;21.60;26.50;;;;;;4916621;29;20463;-83
2022/03/11 10:03:41;;;;;;;15.30;12.30;;;22.30;26.30;;;;;;4933328;29;20475;-84
2022/03/11 10:06:09;;;;;;;12.53;11.23;;;22.40;25.60;;;;;;4924531;29;20493;-85
2022/03/11 10:08:38;;;;;;;14.83;13.43;;;21.50;26.20;;;;;;4912138;29;20460;-84
2022/03/11 10:11:22;;;;;;;13.73;12.37;;;21.50;26.50;;;;;;4910784;29;20465;-90
2022/03/11 10:13:51;;;;;;;13.53;12.13;;;22.00;25.60;;;;;;4910717;29;20818;-90
2022/03/11 10:16:19;;;;;;;13.83;12.30;;;22.70;26.00;;;;;;4919997;29;20607;-83
2022/03/11 10:18:57;;;;;;;13.40;12.20;;;24.30;25.80;;;;;;4936497;29;20443;-83
2022/03/11 10:21:29;;;;;;;16.37;14.63;;;25.80;24.40;;;;;;4925262;29;20862;-83
2022/03/11 10:23:57;;;;;;;15.97;14.07;;;26.40;23.70;;;;;;4919303;29;20444;-85
2022/03/11 10:26:35;;;;;;;17.13;13.70;;;26.20;23.60;;;;;;4916169;29;20494;-84
2022/03/11 10:29:05;;;;;;;15.67;14.17;;;24.20;23.00;;;;;;4933442;29;20458;-84
2022/03/11 10:31:33;;;;;;;14.00;12.50;;;23.90;24.70;;;;;;4941627;29;20464;-84
2022/03/11 10:34:14;;;;;;;14.50;12.77;;;22.10;24.70;;;;;;4911544;29;21105;-83
2022/03/11 10:36:51;;;;;;;16.10;14.60;;;22.10;26.30;;;;;;4901724;29;20514;-84
2022/03/11 10:39:19;;;;;;;12.50;11.40;;;23.70;25.70;;;;;;4916625;29;20455;-84
2022/03/11 10:41:46;;;;;;;14.20;12.80;;;24.10;24.70;;;;;;4914936;29;20460;-84
2022/03/11 10:44:13;;;;;;;14.37;12.90;;;25.00;24.50;;;;;;4904298;29;20464;-84
2022/03/11 10:46:40;;;;;;;14.00;12.60;;;25.90;23.70;;;;;;4907164;29;20876;-83
2022/03/11 10:49:07;;;;;;;14.17;12.77;;;27.00;23.30;;;;;;4908939;29;20484;-83
2022/03/11 10:51:35;;;;;;;13.70;12.40;;;27.00;22.80;;;;;;4922855;29;20458;-85
2022/03/11 10:54:06;;;;;;;15.30;13.77;;;27.70;22.70;;;;;;4902800;29;21018;-84
2022/03/11 10:56:35;;;;;;;13.13;12.00;;;27.70;22.20;;;;;;4903097;29;20495;-84
2022/03/11 10:59:05;;;;;;;13.27;12.17;;;29.10;22.30;;;;;;4904801;29;20966;-84
2022/03/11 11:01:36;;;;;;;14.13;12.73;;;28.20;21.70;;;;;;4921055;29;20447;-83
2022/03/11 11:04:05;;;;;;;18.80;12.30;;;28.20;21.80;;;;;;4919525;29;20789;-84
2022/03/11 11:06:31;;;;;;;14.33;12.83;;;28.30;21.80;;;;;;4903753;29;20495;-84
2022/03/11 11:08:58;;;;;;;14.20;12.90;;;28.00;21.60;;;;;;4906306;29;20459;-84
2022/03/11 11:11:27;;;;;;;14.40;12.93;;;27.50;22.20;;;;;;4904432;29;20481;-83
2022/03/11 11:13:53;;;;;;;15.20;13.80;;;25.60;23.10;;;;;;4911711;29;20501;-84
2022/03/11 11:16:25;;;;;;;15.23;13.63;;;24.90;24.20;;;;;;4919357;29;20478;-83
2022/03/11 11:18:52;;;;;;;12.60;11.60;;;25.50;23.50;;;;;;4922044;29;20450;-84
2022/03/11 11:21:24;;;;;;;12.30;11.13;;;26.00;23.40;;;;;;4919645;29;20469;-83
2022/03/11 11:23:54;;;;;;;13.20;12.00;;;26.40;23.40;;;;;;4907942;29;20489;-85
2022/03/11 11:26:22;;;;;;;14.20;12.77;;;28.40;22.80;;;;;;4916649;29;20483;-84
2022/03/11 11:28:52;;;;;;;13.97;12.67;;;29.80;21.60;;;;;;4901888;29;20582;-85
2022/03/11 11:31:21;;;;;;;12.87;11.67;;;29.80;20.90;;;;;;4904811;29;20466;-86
2022/03/11 11:33:49;;;;;;;15.17;13.67;;;30.20;20.80;;;;;;4920213;29;20459;-85
2022/03/11 11:36:33;;;;;;;14.37;12.13;;;30.00;21.00;;;;;;4910562;29;20531;-85
2022/03/11 11:39:03;;;;;;;13.60;12.17;;;31.20;20.70;;;;;;4913791;29;20461;-85
2022/03/11 11:41:31;;;;;;;15.30;13.27;;;31.10;20.20;;;;;;4925226;29;20461;-85
2022/03/11 11:44:01;;;;;;;14.43;13.33;;;30.20;20.20;;;;;;4927724;29;20453;-85
2022/03/11 11:46:29;;;;;;;13.10;12.00;;;30.00;20.50;;;;;;4940514;29;20466;-86
2022/03/11 11:49:16;;;;;;;13.70;12.60;;;29.30;20.90;;;;;;4934615;29;20440;-83
2022/03/11 11:51:58;;;;;;;13.33;12.23;;;28.30;21.20;;;;;;4923556;29;20428;-84
2022/03/11 11:54:42;;;;;;;12.53;11.33;;;28.00;22.00;;;;;;4905563;29;20931;-86
2022/03/11 11:57:33;;;;;;;13.93;12.70;;;27.80;22.10;;;;;;4910851;29;20982;-86
2022/03/11 12:00:08;;;;;;;14.40;13.10;;;28.10;21.90;;;;;;4927549;29;20588;-87
2022/03/11 12:02:42;;;;;;;14.67;13.40;;;27.70;22.10;;;;;;4940314;29;20435;-85
2022/03/11 12:05:52;;;;;;;14.83;13.53;;;26.90;22.60;;;;;;4926452;29;20459;-87
2022/03/11 12:08:50;;;;;;;13.80;12.53;;;26.50;22.70;;;;;;4912316;29;20491;-86
2022/03/11 12:11:43;;;;;;;12.40;11.40;;;26.60;23.20;;;;;;4976482;23;20494;-89
2022/03/11 12:14:18;;;;;;;13.53;12.33;;;28.50;22.20;;;;;;4910309;29;20877;-90
2022/03/11 12:17:03;;;;;;;14.33;13.07;;;26.90;22.70;;;;;;4911927;29;20545;-90
2022/03/11 12:19:37;;;;;;;14.27;13.00;;;27.40;22.60;;;;;;4913525;29;20476;-85
2022/03/11 12:22:22;;;;;;;13.90;12.67;;;26.50;22.90;;;;;;4912508;29;20467;-87
2022/03/11 12:24:58;;;;;;;14.67;13.20;;;24.70;24.20;;;;;;4894409;29;20958;-86
2022/03/11 12:28:06;;;;;;;14.30;13.00;;;25.10;24.50;;;;;;4904235;29;20555;-86
2022/03/11 12:30:34;;;;;;;16.13;12.70;;;26.10;23.80;;;;;;4868687;29;20578;-86
2022/03/11 12:33:04;;;;;;;14.00;12.83;;;26.50;23.40;;;;;;4923483;29;20453;-86
2022/03/11 12:35:31;;;;;;;13.63;12.43;;;27.20;22.90;;;;;;4924105;29;20813;-86
2022/03/11 12:37:58;;;;;;;14.83;13.47;;;27.90;22.50;;;;;;4925196;29;20432;-88
2022/03/11 12:40:26;;;;;;;14.40;13.00;;;28.70;22.10;;;;;;4911581;29;20443;-89
2022/03/11 12:42:59;;;;;;;14.37;12.97;;;27.20;22.60;;;;;;4916906;29;20972;-89
2022/03/11 12:45:31;;;;;;;14.90;12.67;;;27.60;22.50;;;;;;4924706;29;20784;-89